Time;durP1;ratioP1;P1;durP2;ratioP2;P2;SDS_P1;SDS_P2;PMS_P1;PMS_P2;Temp;Humidity;BMP_temperature;BMP_pressure;BME280_temperature;BME280_humidity;BME280_pressure;Samples;Min_cycle;Max_cycle;Signal;HPM_P1;HPM_P2
2022/06/24 00:00:48;;;;;;;19.17;17.48;;;;;;;;;;6155714;23;20077;-85
2022/06/24 00:03:18;;;;;;;19.88;17.98;;;;;;;;;;6129268;23;20002;-84
2022/06/24 00:05:46;;;;;;;17.90;16.23;;;;;;;;;;6155633;23;20019;-81
2022/06/24 00:08:13;;;;;;;18.13;16.42;;;;;;;;;;6155164;23;20101;-82
2022/06/24 00:10:43;;;;;;;18.30;16.55;;;;;;;;;;6155489;23;20009;-83
2022/06/24 00:13:09;;;;;;;18.85;16.95;;;;;;;;;;6155331;23;20005;-82
2022/06/24 00:15:37;;;;;;;18.58;16.77;;;;;;;;;;6155417;23;20046;-84
2022/06/24 00:18:22;;;;;;;17.52;15.93;;;;;;;;;;6155200;23;20057;-80
2022/06/24 00:20:49;;;;;;;17.67;16.05;;;;;;;;;;6155197;23;19997;-81
2022/06/24 00:23:16;;;;;;;19.00;17.30;;;;;;;;;;6155451;23;20049;-84
2022/06/24 00:25:43;;;;;;;18.50;16.60;;;;;;;;;;6155237;23;20017;-80
2022/06/24 00:28:13;;;;;;;18.85;17.02;;;;;;;;;;6155205;23;20005;-80
2022/06/24 00:30:39;;;;;;;17.52;15.80;;;;;;;;;;6155293;23;20001;-85
2022/06/24 00:33:24;;;;;;;17.48;15.88;;;;;;;;;;6129024;23;20005;-82
2022/06/24 00:35:51;;;;;;;19.58;17.67;;;;;;;;;;6155455;23;20441;-82
2022/06/24 00:38:36;;;;;;;19.30;17.50;;;;;;;;;;6128931;23;20009;-83
2022/06/24 00:41:04;;;;;;;18.42;16.73;;;;;;;;;;6155144;23;20001;-83
2022/06/24 00:43:35;;;;;;;18.08;16.35;;;;;;;;;;6155045;23;19997;-83
2022/06/24 00:46:19;;;;;;;18.02;16.27;;;;;;;;;;6155674;23;20418;-84
2022/06/24 00:49:04;;;;;;;18.15;16.55;;;;;;;;;;6155042;23;20014;-83
2022/06/24 00:51:36;;;;;;;17.63;16.02;;;;;;;;;;6155208;23;20008;-81
2022/06/24 00:54:13;;;;;;;18.10;16.30;;;;;;;;;;6155030;23;20150;-83
2022/06/24 00:56:40;;;;;;;18.30;16.60;;;;;;;;;;6154869;23;20024;-82
2022/06/24 00:59:07;;;;;;;19.45;17.52;;;;;;;;;;6155208;23;20002;-81
2022/06/24 01:01:36;;;;;;;18.02;16.27;;;;;;;;;;6155035;23;19998;-88
2022/06/24 01:04:07;;;;;;;17.88;16.27;;;;;;;;;;6155139;23;20006;-84
2022/06/24 01:06:34;;;;;;;15.90;14.50;;;;;;;;;;6154471;23;20096;-81
2022/06/24 01:09:00;;;;;;;18.15;16.25;;;;;;;;;;6155162;23;20005;-81
2022/06/24 01:11:45;;;;;;;17.52;15.93;;;;;;;;;;6128903;23;20008;-80
2022/06/24 01:14:11;;;;;;;18.30;16.60;;;;;;;;;;6154960;23;20001;-82
2022/06/24 01:16:37;;;;;;;19.10;17.33;;;;;;;;;;6154919;23;20009;-83
2022/06/24 01:19:05;;;;;;;18.40;16.63;;;;;;;;;;6154856;23;20025;-85
2022/06/24 01:21:32;;;;;;;18.42;16.42;;;;;;;;;;6154673;23;19998;-82
2022/06/24 01:24:05;;;;;;;18.40;16.77;;;;;;;;;;6155149;23;20418;-85
2022/06/24 01:26:31;;;;;;;18.48;16.58;;;;;;;;;;6154811;23;20002;-84
2022/06/24 01:28:57;;;;;;;16.42;14.88;;;;;;;;;;6155019;23;20434;-83
2022/06/24 01:31:23;;;;;;;17.80;16.08;;;;;;;;;;6154785;23;20013;-85
2022/06/24 01:33:50;;;;;;;19.20;17.38;;;;;;;;;;6154896;23;20137;-81
2022/06/24 01:36:18;;;;;;;18.55;16.95;;;;;;;;;;6155014;23;20005;-79
2022/06/24 01:38:44;;;;;;;17.60;16.00;;;;;;;;;;6154867;23;20041;-81
2022/06/24 01:41:10;;;;;;;19.17;17.38;;;;;;;;;;6154895;23;20009;-83
2022/06/24 01:43:36;;;;;;;20.02;18.13;;;;;;;;;;6128658;23;20025;-86
2022/06/24 01:46:02;;;;;;;18.33;16.73;;;;;;;;;;6154916;23;20001;-84
2022/06/24 01:48:28;;;;;;;18.45;16.65;;;;;;;;;;6154612;23;20013;-80
2022/06/24 01:50:55;;;;;;;18.85;17.10;;;;;;;;;;6129371;23;20020;-80
2022/06/24 01:53:21;;;;;;;18.85;17.05;;;;;;;;;;6156626;23;20056;-85
2022/06/24 01:55:47;;;;;;;19.23;17.42;;;;;;;;;;6156792;23;20005;-84
2022/06/24 01:58:14;;;;;;;18.25;16.65;;;;;;;;;;6156726;23;20029;-85
2022/06/24 02:00:40;;;;;;;18.88;16.92;;;;;;;;;;6156590;23;19998;-82
2022/06/24 02:03:06;;;;;;;18.08;16.48;;;;;;;;;;6156838;23;20357;-82
2022/06/24 02:05:32;;;;;;;17.77;16.27;;;;;;;;;;6156407;23;20080;-81
2022/06/24 02:07:58;;;;;;;18.63;16.95;;;;;;;;;;6156574;23;20394;-83
2022/06/24 02:15:59;;;;;;;16.65;15.02;;;;;;;;;;6156604;23;20020;-80
2022/06/24 02:18:26;;;;;;;18.33;16.55;;;;;;;;;;6156559;23;20004;-81
2022/06/24 02:20:52;;;;;;;19.13;17.20;;;;;;;;;;6156439;23;20002;-82
2022/06/24 02:23:19;;;;;;;18.17;16.48;;;;;;;;;;6156577;23;19993;-81
2022/06/24 02:25:45;;;;;;;18.10;16.50;;;;;;;;;;6156612;23;20073;-80
2022/06/24 02:28:12;;;;;;;17.65;16.02;;;;;;;;;;6156405;23;19998;-80
2022/06/24 02:30:38;;;;;;;17.63;15.95;;;;;;;;;;6156538;23;20052;-80
2022/06/24 02:33:05;;;;;;;18.33;16.42;;;;;;;;;;6156128;23;20005;-83
2022/06/24 02:35:31;;;;;;;17.30;15.70;;;;;;;;;;6156535;23;20005;-82
2022/06/24 02:37:57;;;;;;;16.95;15.25;;;;;;;;;;6156049;23;20432;-85
2022/06/24 02:43:22;;;;;;;17.98;16.38;;;;;;;;;;6156416;23;20020;-82
2022/06/24 02:46:07;;;;;;;18.05;16.35;;;;;;;;;;6156065;23;20053;-83
2022/06/24 02:48:34;;;;;;;16.90;15.30;;;;;;;;;;6156081;23;20056;-84
2022/06/24 02:51:01;;;;;;;16.65;15.02;;;;;;;;;;6156241;23;20068;-85
2022/06/24 02:53:28;;;;;;;17.58;15.98;;;;;;;;;;6156416;23;20002;-82
2022/06/24 02:55:55;;;;;;;15.55;14.15;;;;;;;;;;6156275;23;20008;-81
2022/06/24 02:58:22;;;;;;;16.27;14.68;;;;;;;;;;6156072;23;20006;-82
2022/06/24 03:00:48;;;;;;;15.57;14.15;;;;;;;;;;6156289;23;20007;-79
2022/06/24 03:03:16;;;;;;;15.38;13.80;;;;;;;;;;6155683;23;20055;-80
2022/06/24 03:05:43;;;;;;;16.50;15.00;;;;;;;;;;6156218;23;20005;-83
2022/06/24 03:08:09;;;;;;;15.07;13.68;;;;;;;;;;6156066;23;20056;-79
2022/06/24 03:10:36;;;;;;;17.17;15.50;;;;;;;;;;6155831;23;20032;-80
2022/06/24 03:13:02;;;;;;;17.17;15.43;;;;;;;;;;6156176;23;20076;-81
2022/06/24 03:15:28;;;;;;;17.05;15.43;;;;;;;;;;6155905;23;20005;-81
2022/06/24 03:17:54;;;;;;;14.52;13.13;;;;;;;;;;6156136;23;20005;-83
2022/06/24 03:20:20;;;;;;;17.15;15.57;;;;;;;;;;6155956;23;20001;-81
2022/06/24 03:22:48;;;;;;;17.80;15.00;;;;;;;;;;6130165;23;20029;-79
2022/06/24 03:25:14;;;;;;;15.98;14.57;;;;;;;;;;6130124;23;20502;-81
2022/06/24 03:27:40;;;;;;;15.95;14.40;;;;;;;;;;6155679;23;20445;-79
2022/06/24 03:30:08;;;;;;;15.40;13.90;;;;;;;;;;6156060;23;20062;-78
2022/06/24 03:32:34;;;;;;;16.60;15.00;;;;;;;;;;6155518;23;20449;-82
2022/06/24 03:35:00;;;;;;;15.77;14.27;;;;;;;;;;6155702;23;20067;-78
2022/06/24 03:37:26;;;;;;;15.02;13.73;;;;;;;;;;6155420;23;20430;-82
2022/06/24 03:39:53;;;;;;;14.57;13.38;;;;;;;;;;6155672;23;20057;-81
2022/06/24 03:42:21;;;;;;;15.50;14.00;;;;;;;;;;6155880;23;20052;-80
2022/06/24 03:44:47;;;;;;;15.13;13.82;;;;;;;;;;6155486;23;20002;-78
2022/06/24 03:47:13;;;;;;;15.77;14.32;;;;;;;;;;6155748;23;20430;-82
2022/06/24 03:49:42;;;;;;;16.33;14.82;;;;;;;;;;6155435;23;20454;-79
2022/06/24 03:52:09;;;;;;;17.15;15.35;;;;;;;;;;6155686;23;20434;-80
2022/06/24 03:54:35;;;;;;;17.15;15.35;;;;;;;;;;6155293;23;20002;-83
2022/06/24 03:57:02;;;;;;;17.90;16.30;;;;;;;;;;6155621;23;20006;-80
2022/06/24 03:59:28;;;;;;;16.33;14.82;;;;;;;;;;6155240;23;20414;-82
2022/06/24 04:01:54;;;;;;;17.58;15.77;;;;;;;;;;6129462;23;20338;-80
2022/06/24 04:04:20;;;;;;;16.42;14.82;;;;;;;;;;6155581;23;20001;-79
2022/06/24 04:06:47;;;;;;;17.20;15.60;;;;;;;;;;6155098;23;20371;-82
2022/06/24 04:09:13;;;;;;;15.63;14.18;;;;;;;;;;6155548;23;20497;-82
2022/06/24 04:11:39;;;;;;;16.33;14.82;;;;;;;;;;6155108;23;20005;-83
2022/06/24 04:14:05;;;;;;;17.25;15.55;;;;;;;;;;6155247;23;20002;-79
2022/06/24 04:16:31;;;;;;;15.15;13.75;;;;;;;;;;6155404;23;20035;-80
2022/06/24 04:18:57;;;;;;;15.07;13.55;;;;;;;;;;6155314;23;20032;-79
2022/06/24 04:21:23;;;;;;;16.80;15.20;;;;;;;;;;6155479;23;19997;-81
2022/06/24 04:23:49;;;;;;;15.77;14.32;;;;;;;;;;6155024;23;20005;-79
2022/06/24 04:26:16;;;;;;;15.55;14.07;;;;;;;;;;6155358;23;20109;-82
2022/06/24 04:28:42;;;;;;;15.20;13.70;;;;;;;;;;6154946;23;20060;-80
2022/06/24 04:31:08;;;;;;;15.90;14.30;;;;;;;;;;6155239;23;20016;-80
2022/06/24 04:33:34;;;;;;;15.55;14.15;;;;;;;;;;6155128;23;20005;-83
2022/06/24 04:36:01;;;;;;;15.82;14.43;;;;;;;;;;6154891;23;20005;-81
2022/06/24 04:38:27;;;;;;;15.40;14.00;;;;;;;;;;6154973;23;20330;-78
2022/06/24 04:40:55;;;;;;;15.30;13.93;;;;;;;;;;6154911;23;20027;-78
2022/06/24 04:43:21;;;;;;;14.65;13.32;;;;;;;;;;6155107;23;19997;-82
2022/06/24 04:45:47;;;;;;;15.15;13.65;;;;;;;;;;6154896;23;19997;-79
2022/06/24 04:48:13;;;;;;;13.95;12.73;;;;;;;;;;6155076;23;20501;-82
2022/06/24 04:50:40;;;;;;;15.65;14.25;;;;;;;;;;6154968;23;20006;-79
2022/06/24 04:53:08;;;;;;;16.42;14.73;;;;;;;;;;6154709;23;19998;-82
2022/06/24 04:55:34;;;;;;;15.93;14.43;;;;;;;;;;6128926;23;20001;-78
2022/06/24 04:58:01;;;;;;;16.48;14.88;;;;;;;;;;6154505;23;20002;-78
2022/06/24 05:00:27;;;;;;;15.48;13.98;;;;;;;;;;6155090;23;20005;-81
2022/06/24 05:02:53;;;;;;;17.05;15.18;;;;;;;;;;6154687;23;20098;-81
2022/06/24 05:05:19;;;;;;;16.58;14.98;;;;;;;;;;6154991;23;20060;-81
2022/06/24 05:07:45;;;;;;;15.05;13.75;;;;;;;;;;6154717;23;20021;-81
2022/06/24 05:10:11;;;;;;;15.65;14.13;;;;;;;;;;6154927;23;20001;-79
2022/06/24 05:12:37;;;;;;;15.32;13.82;;;;;;;;;;6155353;23;20008;-82
2022/06/24 05:15:03;;;;;;;17.42;15.68;;;;;;;;;;6154642;23;20076;-84
2022/06/24 05:17:29;;;;;;;17.95;16.10;;;;;;;;;;6154040;23;20049;-82
2022/06/24 05:19:56;;;;;;;18.58;16.63;;;;;;;;;;6154306;23;20142;-78
2022/06/24 05:22:22;;;;;;;16.85;15.25;;;;;;;;;;6153966;23;20388;-82
2022/06/24 05:24:48;;;;;;;18.23;16.52;;;;;;;;;;6151588;23;20052;-79
2022/06/24 05:27:14;;;;;;;18.75;17.05;;;;;;;;;;6151059;23;20009;-80
2022/06/24 05:29:40;;;;;;;20.42;18.35;;;;;;;;;;6153074;23;20009;-81
2022/06/24 05:32:06;;;;;;;19.35;17.55;;;;;;;;;;6154083;23;20036;-82
2022/06/24 05:34:33;;;;;;;17.23;15.50;;;;;;;;;;6128017;23;20014;-82
2022/06/24 05:36:59;;;;;;;18.10;16.20;;;;;;;;;;6151531;23;20021;-82
2022/06/24 05:39:26;;;;;;;18.00;16.30;;;;;;;;;;6128179;23;20025;-86
2022/06/24 05:41:52;;;;;;;15.93;14.43;;;;;;;;;;6154556;23;20025;-82
2022/06/24 05:44:18;;;;;;;15.07;13.48;;;;;;;;;;6154329;23;19997;-82
2022/06/24 05:46:45;;;;;;;15.40;13.75;;;;;;;;;;6154335;23;20373;-81
2022/06/24 05:49:11;;;;;;;16.42;14.77;;;;;;;;;;6125040;23;20370;-80
2022/06/24 05:51:37;;;;;;;17.05;15.35;;;;;;;;;;6152931;23;20056;-80
2022/06/24 05:56:49;;;;;;;18.88;17.08;;;;;;;;;;6152846;23;20068;-81
2022/06/24 05:59:15;;;;;;;17.52;15.80;;;;;;;;;;6152653;23;20105;-82
2022/06/24 06:01:41;;;;;;;17.83;16.13;;;;;;;;;;6127019;23;20005;-81
2022/06/24 06:04:08;;;;;;;16.90;15.10;;;;;;;;;;6152829;23;20005;-80
2022/06/24 06:06:36;;;;;;;15.82;14.32;;;;;;;;;;6126956;23;20432;-83
2022/06/24 06:09:03;;;;;;;15.65;14.20;;;;;;;;;;6152814;23;20069;-80
2022/06/24 06:11:29;;;;;;;16.33;14.70;;;;;;;;;;6153122;23;20006;-82
2022/06/24 06:13:56;;;;;;;54.40;25.88;;;;;;;;;;6152418;23;20001;-81
2022/06/24 06:16:22;;;;;;;70.15;31.38;;;;;;;;;;6127119;23;20001;-80
2022/06/24 06:18:48;;;;;;;61.42;27.80;;;;;;;;;;6152928;23;20056;-81
2022/06/24 06:21:15;;;;;;;46.38;23.33;;;;;;;;;;6153171;23;20025;-80
2022/06/24 06:23:44;;;;;;;104.88;84.60;;;;;;;;;;6152725;23;20006;-84
2022/06/24 06:26:13;;;;;;;58.33;36.65;;;;;;;;;;6152618;23;20025;-81
2022/06/24 06:28:41;;;;;;;36.20;24.00;;;;;;;;;;6152676;23;20014;-83
2022/06/24 06:31:15;;;;;;;54.58;48.63;;;;;;;;;;6152444;23;20013;-84
2022/06/24 06:33:42;;;;;;;31.20;26.83;;;;;;;;;;6098826;23;20052;-83
2022/06/24 06:36:20;;;;;;;24.23;21.38;;;;;;;;;;6126628;23;20006;-85
2022/06/24 06:38:46;;;;;;;16.98;15.27;;;;;;;;;;6129218;23;20009;-83
2022/06/24 06:41:25;;;;;;;16.73;15.02;;;;;;;;;;6154013;23;20598;-85
2022/06/24 06:47:12;;;;;;;15.05;13.50;;;;;;;;;;6154471;23;20024;-82
2022/06/24 06:49:47;;;;;;;14.55;13.25;;;;;;;;;;5984185;23;20011;-85
2022/06/24 06:52:52;;;;;;;;;;;;;;;;;;;;;
2022/06/24 06:55:39;;;;;;;15.40;13.80;;;;;;;;;;6153851;23;20101;-83
2022/06/24 06:58:24;;;;;;;;;;;;;;;;;;;;;
2022/06/24 07:00:51;;;;;;;132.88;57.78;;;;;;;;;;6154842;23;20504;-81
2022/06/24 07:03:17;;;;;;;112.13;48.55;;;;;;;;;;6154403;23;20005;-82
2022/06/24 07:05:54;;;;;;;130.18;52.28;;;;;;;;;;6154010;23;20001;-87
2022/06/24 07:08:23;;;;;;;169.48;68.60;;;;;;;;;;6153765;23;20017;-84
2022/06/24 07:10:49;;;;;;;141.50;58.10;;;;;;;;;;6154790;23;20017;-81
2022/06/24 07:13:15;;;;;;;110.80;46.50;;;;;;;;;;6154379;23;20013;-82
2022/06/24 07:15:41;;;;;;;63.53;33.10;;;;;;;;;;6154306;23;20072;-84
2022/06/24 07:18:08;;;;;;;45.13;25.17;;;;;;;;;;6127710;23;20017;-83
2022/06/24 07:20:34;;;;;;;209.00;83.95;;;;;;;;;;6127584;23;20013;-81
2022/06/24 07:25:58;;;;;;;144.85;61.95;;;;;;;;;;6119441;23;20005;-85
2022/06/24 07:29:06;;;;;;;185.32;82.45;;;;;;;;;;6153216;23;20434;-85
2022/06/24 07:31:31;;;;;;;109.82;48.53;;;;;;;;;;6153475;23;20005;-82
2022/06/24 07:33:57;;;;;;;62.78;31.02;;;;;;;;;;6154145;23;20002;-81
2022/06/24 07:36:23;;;;;;;52.58;29.80;;;;;;;;;;6153298;23;20001;-85
2022/06/24 07:38:49;;;;;;;28.63;20.05;;;;;;;;;;6153793;23;20414;-82
2022/06/24 07:41:16;;;;;;;20.77;16.90;;;;;;;;;;6153693;23;20002;-83
2022/06/24 07:43:42;;;;;;;21.85;17.02;;;;;;;;;;6154048;23;20398;-83
2022/06/24 07:46:08;;;;;;;17.92;15.93;;;;;;;;;;6153804;23;20501;-79
2022/06/24 07:48:37;;;;;;;17.30;14.82;;;;;;;;;;6153531;23;20037;-82
2022/06/24 07:51:22;;;;;;;17.75;14.15;;;;;;;;;;6154258;23;20005;-79
2022/06/24 07:53:49;;;;;;;15.00;13.60;;;;;;;;;;6127544;23;20017;-84
2022/06/24 07:59:02;;;;;;;15.48;14.02;;;;;;;;;;6153360;23;20020;-87
2022/06/24 08:01:28;;;;;;;15.52;14.13;;;;;;;;;;6127341;23;20006;-82
2022/06/24 08:03:54;;;;;;;19.38;16.00;;;;;;;;;;6154271;23;19997;-87
2022/06/24 08:06:20;;;;;;;92.40;40.42;;;;;;;;;;6127105;23;20069;-81
2022/06/24 08:08:47;;;;;;;25.70;20.83;;;;;;;;;;6154039;23;20017;-84
2022/06/24 08:11:13;;;;;;;200.45;80.68;;;;;;;;;;6126616;23;20010;-86
2022/06/24 08:13:41;;;;;;;26.13;17.30;;;;;;;;;;6153874;23;20040;-82
2022/06/24 08:16:07;;;;;;;121.30;50.33;;;;;;;;;;6127955;23;20037;-81
2022/06/24 08:18:43;;;;;;;38.85;23.27;;;;;;;;;;6152788;23;20005;-86
2022/06/24 08:21:09;;;;;;;19.88;15.70;;;;;;;;;;6154188;23;20333;-86
2022/06/24 08:23:35;;;;;;;80.13;39.13;;;;;;;;;;6154077;23;20002;-83
2022/06/24 08:26:01;;;;;;;72.30;39.08;;;;;;;;;;6153853;23;19997;-83
2022/06/24 08:28:45;;;;;;;15.82;14.18;;;;;;;;;;6153240;23;20445;-83
2022/06/24 08:31:14;;;;;;;36.00;21.40;;;;;;;;;;6153739;23;20068;-84
2022/06/24 08:33:40;;;;;;;17.05;15.15;;;;;;;;;;6153726;23;20068;-84
2022/06/24 08:36:06;;;;;;;18.27;16.40;;;;;;;;;;6153851;23;20002;-80
2022/06/24 08:38:32;;;;;;;16.90;15.27;;;;;;;;;;6152569;23;20005;-81
2022/06/24 08:41:00;;;;;;;16.88;15.07;;;;;;;;;;6153927;23;20005;-84
2022/06/24 08:43:29;;;;;;;14.70;13.40;;;;;;;;;;6153794;23;20009;-83
2022/06/24 08:45:57;;;;;;;14.90;13.60;;;;;;;;;;6154012;23;20032;-84
2022/06/24 08:48:24;;;;;;;14.45;13.15;;;;;;;;;;6153759;23;20006;-84
2022/06/24 08:50:50;;;;;;;14.45;12.95;;;;;;;;;;6153706;23;20037;-86
2022/06/24 08:53:21;;;;;;;13.13;11.77;;;;;;;;;;6152412;23;20009;-87
2022/06/24 08:55:50;;;;;;;12.70;11.45;;;;;;;;;;6126797;23;20072;-82
2022/06/24 08:58:17;;;;;;;12.50;11.20;;;;;;;;;;6127495;23;20067;-82
2022/06/24 09:00:43;;;;;;;12.93;11.82;;;;;;;;;;6153026;23;20008;-82
2022/06/24 09:03:10;;;;;;;12.65;11.65;;;;;;;;;;6153795;23;20012;-85
2022/06/24 09:05:36;;;;;;;13.82;11.15;;;;;;;;;;6153022;23;20005;-82
2022/06/24 09:08:07;;;;;;;12.15;11.05;;;;;;;;;;6152983;23;20049;-79
2022/06/24 09:10:36;;;;;;;12.82;11.57;;;;;;;;;;6153452;23;20016;-83
2022/06/24 09:13:03;;;;;;;12.18;11.07;;;;;;;;;;6154039;23;20493;-82
2022/06/24 09:15:29;;;;;;;11.65;10.55;;;;;;;;;;6127253;23;20029;-83
2022/06/24 09:17:56;;;;;;;11.30;10.40;;;;;;;;;;6151507;23;20029;-81
2022/06/24 09:20:23;;;;;;;13.77;12.48;;;;;;;;;;6152812;23;20009;-86
2022/06/24 09:22:50;;;;;;;12.95;11.85;;;;;;;;;;6153278;23;20315;-84
2022/06/24 09:25:16;;;;;;;12.90;11.80;;;;;;;;;;6127641;23;20006;-87
2022/06/24 09:27:43;;;;;;;13.07;11.80;;;;;;;;;;6153390;23;20001;-85
2022/06/24 09:30:10;;;;;;;12.93;11.82;;;;;;;;;;6154096;23;20009;-83
2022/06/24 09:32:52;;;;;;;13.35;12.25;;;;;;;;;;6153914;23;20012;-80
2022/06/24 09:35:19;;;;;;;13.43;12.32;;;;;;;;;;6153838;23;20010;-83
2022/06/24 09:37:51;;;;;;;13.20;11.93;;;;;;;;;;6153525;23;20032;-84
2022/06/24 09:40:20;;;;;;;13.60;12.38;;;;;;;;;;6153434;23;20151;-81
2022/06/24 09:42:57;;;;;;;13.93;12.65;;;;;;;;;;6152491;23;20430;-88
2022/06/24 09:45:28;;;;;;;13.25;12.15;;;;;;;;;;6152884;23;20334;-86
2022/06/24 09:47:57;;;;;;;14.15;12.75;;;;;;;;;;6151414;23;20006;-81
2022/06/24 09:50:30;;;;;;;13.48;12.20;;;;;;;;;;6152457;23;19998;-85
2022/06/24 09:53:08;;;;;;;13.85;12.75;;;;;;;;;;6153078;23;20009;-86
2022/06/24 09:55:34;;;;;;;13.43;12.15;;;;;;;;;;6153015;23;20006;-83
2022/06/24 09:58:00;;;;;;;13.63;12.38;;;;;;;;;;6152842;23;20009;-85
2022/06/24 10:03:13;;;;;;;13.85;12.65;;;;;;;;;;6152754;23;20016;-83
2022/06/24 10:05:41;;;;;;;13.20;12.10;;;;;;;;;;6126424;23;20092;-83
2022/06/24 10:08:10;;;;;;;13.00;11.75;;;;;;;;;;6152762;23;20032;-80
2022/06/24 10:10:36;;;;;;;13.15;11.82;;;;;;;;;;6153138;23;20029;-81
2022/06/24 10:13:15;;;;;;;13.18;11.77;;;;;;;;;;6154654;23;20001;-84
2022/06/24 10:15:41;;;;;;;13.77;12.07;;;;;;;;;;6155253;23;20036;-81
2022/06/24 10:18:09;;;;;;;16.40;13.23;;;;;;;;;;6128503;23;20005;-84
2022/06/24 10:20:36;;;;;;;14.25;11.15;;;;;;;;;;6155136;23;20002;-82
2022/06/24 10:23:02;;;;;;;15.63;12.90;;;;;;;;;;6128597;23;20338;-82
2022/06/24 10:25:58;;;;;;;10.32;9.30;;;;;;;;;;6129434;23;20303;-83
2022/06/24 10:28:24;;;;;;;22.67;15.30;;;;;;;;;;6123776;23;20009;-80
2022/06/24 10:30:55;;;;;;;46.50;24.95;;;;;;;;;;6154473;23;19998;-82
2022/06/24 10:33:26;;;;;;;14.65;11.07;;;;;;;;;;6155267;23;20013;-87
2022/06/24 10:35:58;;;;;;;110.78;48.45;;;;;;;;;;6154627;23;20460;-78
2022/06/24 10:38:25;;;;;;;31.27;17.17;;;;;;;;;;6153067;23;20001;-84
2022/06/24 10:40:52;;;;;;;148.00;59.28;;;;;;;;;;6154049;23;20036;-86
2022/06/24 10:43:34;;;;;;;67.75;32.10;;;;;;;;;;6155084;23;20052;-85
2022/06/24 10:46:16;;;;;;;70.45;31.38;;;;;;;;;;6128307;23;20020;-80
2022/06/24 10:48:47;;;;;;;110.93;47.63;;;;;;;;;;6154564;23;20009;-81
2022/06/24 10:51:13;;;;;;;127.97;54.05;;;;;;;;;;6154107;23;20009;-78
2022/06/24 10:53:58;;;;;;;103.30;43.05;;;;;;;;;;6154521;23;20064;-83
2022/06/24 10:56:42;;;;;;;40.92;18.30;;;;;;;;;;6129795;23;20014;-79
2022/06/24 10:59:09;;;;;;;126.22;49.42;;;;;;;;;;6155541;23;20009;-83
2022/06/24 11:01:36;;;;;;;20.05;12.23;;;;;;;;;;6156115;23;20056;-81
2022/06/24 11:04:04;;;;;;;86.25;37.15;;;;;;;;;;6155885;23;19998;-82
2022/06/24 11:06:37;;;;;;;31.25;17.23;;;;;;;;;;6156116;23;20012;-82
2022/06/24 11:09:08;;;;;;;11.95;8.82;;;;;;;;;;6129005;23;20018;-84
2022/06/24 11:11:34;;;;;;;7.60;6.70;;;;;;;;;;6155358;23;20009;-82
2022/06/24 11:14:01;;;;;;;22.88;14.18;;;;;;;;;;6155651;23;19998;-84
2022/06/24 11:16:30;;;;;;;40.00;24.00;;;;;;;;;;6130601;23;20002;-83
2022/06/24 11:18:57;;;;;;;112.05;49.63;;;;;;;;;;6156369;23;20062;-83
2022/06/24 11:21:23;;;;;;;12.63;9.05;;;;;;;;;;6156495;23;20002;-83
2022/06/24 11:23:52;;;;;;;16.20;11.00;;;;;;;;;;6155979;23;20002;-87
2022/06/24 11:26:19;;;;;;;33.78;19.17;;;;;;;;;;6156410;23;20001;-83
2022/06/24 11:28:53;;;;;;;22.38;13.95;;;;;;;;;;6130169;23;20088;-82
2022/06/24 11:31:29;;;;;;;35.70;18.65;;;;;;;;;;6156627;23;20111;-83
2022/06/24 11:34:14;;;;;;;25.77;15.82;;;;;;;;;;6156160;23;20072;-84
2022/06/24 11:36:42;;;;;;;19.67;13.00;;;;;;;;;;6156437;23;20028;-79
2022/06/24 11:39:09;;;;;;;14.57;13.27;;;;;;;;;;6156194;23;20001;-82
2022/06/24 11:41:36;;;;;;;27.27;15.40;;;;;;;;;;6156565;23;19997;-81
2022/06/24 11:44:02;;;;;;;16.42;10.85;;;;;;;;;;6156124;23;19997;-79
2022/06/24 11:46:29;;;;;;;22.15;14.00;;;;;;;;;;6155915;23;20005;-81
2022/06/24 11:49:13;;;;;;;22.83;13.25;;;;;;;;;;6128582;23;20014;-84
2022/06/24 11:51:40;;;;;;;30.48;15.27;;;;;;;;;;6155086;23;20013;-83
2022/06/24 11:54:08;;;;;;;25.92;13.52;;;;;;;;;;6129596;23;20005;-87
2022/06/24 11:56:54;;;;;;;8.25;5.97;;;;;;;;;;6155332;23;20013;-84
2022/06/24 11:59:37;;;;;;;7.40;5.75;;;;;;;;;;6129913;23;20075;-86
2022/06/24 12:02:17;;;;;;;16.40;11.50;;;;;;;;;;6154816;23;20024;-83
2022/06/24 12:04:43;;;;;;;22.45;11.20;;;;;;;;;;6128792;23;20005;-81
2022/06/24 12:07:10;;;;;;;30.13;20.27;;;;;;;;;;6154617;23;20052;-83
2022/06/24 12:09:37;;;;;;;10.18;7.88;;;;;;;;;;6153124;23;20002;-85
2022/06/24 12:12:10;;;;;;;6.55;5.50;;;;;;;;;;6155245;23;20060;-86
2022/06/24 12:14:37;;;;;;;20.00;10.18;;;;;;;;;;6155180;23;20131;-82
2022/06/24 12:17:03;;;;;;;15.13;8.60;;;;;;;;;;6155073;23;20334;-80
2022/06/24 12:19:33;;;;;;;5.78;5.18;;;;;;;;;;6154894;23;20014;-82
2022/06/24 12:25:21;;;;;;;8.30;4.93;;;;;;;;;;6154679;23;20008;-83
2022/06/24 12:27:50;;;;;;;7.40;4.90;;;;;;;;;;6154070;23;19997;-81
2022/06/24 12:30:24;;;;;;;4.47;3.67;;;;;;;;;;6154715;23;20064;-83
2022/06/24 12:32:59;;;;;;;10.18;6.88;;;;;;;;;;6155852;23;20076;-83
2022/06/24 12:35:53;;;;;;;8.40;6.18;;;;;;;;;;6129984;23;20429;-84
2022/06/24 12:38:23;;;;;;;9.10;6.15;;;;;;;;;;6129818;23;20072;-83
2022/06/24 12:41:07;;;;;;;4.65;3.60;;;;;;;;;;6129753;23;20037;-81
2022/06/24 12:46:41;;;;;;;6.90;5.22;;;;;;;;;;6154927;23;20006;-82
2022/06/24 12:52:11;;;;;;;6.22;5.63;;;;;;;;;;6154139;23;20016;-84
2022/06/24 12:54:47;;;;;;;20.58;18.50;;;;;;;;;;6154739;23;20023;-82
2022/06/24 12:57:13;;;;;;;7.03;5.85;;;;;;;;;;6153448;23;20005;-84
2022/06/24 12:59:42;;;;;;;18.33;10.13;;;;;;;;;;6154262;23;20009;-81
2022/06/24 13:02:11;;;;;;;14.60;8.93;;;;;;;;;;6154091;23;19998;-82
2022/06/24 13:04:37;;;;;;;78.60;37.60;;;;;;;;;;6154708;23;19997;-80
2022/06/24 13:07:04;;;;;;;95.13;43.78;;;;;;;;;;6153802;23;20365;-85
2022/06/24 13:09:30;;;;;;;7.30;5.30;;;;;;;;;;6154349;23;20014;-80
2022/06/24 13:11:56;;;;;;;8.77;5.50;;;;;;;;;;6153878;23;20511;-80
2022/06/24 13:14:25;;;;;;;6.57;4.47;;;;;;;;;;6152836;23;20008;-81
2022/06/24 13:16:51;;;;;;;5.13;4.20;;;;;;;;;;6152978;23;19997;-83
2022/06/24 13:19:17;;;;;;;8.23;4.45;;;;;;;;;;6153180;23;20002;-85
2022/06/24 13:21:44;;;;;;;4.00;3.60;;;;;;;;;;6154454;23;20001;-80
2022/06/24 13:24:10;;;;;;;3.17;2.75;;;;;;;;;;6127984;23;20010;-78
2022/06/24 13:26:47;;;;;;;3.67;3.15;;;;;;;;;;6154515;23;20481;-80
2022/06/24 13:29:13;;;;;;;5.32;3.95;;;;;;;;;;6153879;23;20002;-77
2022/06/24 13:31:42;;;;;;;4.60;3.90;;;;;;;;;;6154299;23;20005;-77
2022/06/24 13:34:08;;;;;;;4.28;3.88;;;;;;;;;;6128275;23;20425;-78
2022/06/24 13:36:34;;;;;;;4.22;3.35;;;;;;;;;;6154499;23;20024;-77
2022/06/24 13:39:03;;;;;;;8.05;7.25;;;;;;;;;;6153784;23;20001;-77
2022/06/24 13:41:31;;;;;;;5.50;5.00;;;;;;;;;;6128330;23;20009;-79
2022/06/24 13:44:02;;;;;;;5.40;4.90;;;;;;;;;;6127601;23;19997;-77
2022/06/24 13:46:28;;;;;;;4.88;4.45;;;;;;;;;;6155664;23;20002;-76
2022/06/24 13:48:57;;;;;;;6.03;5.47;;;;;;;;;;6157595;23;20426;-77
2022/06/24 13:51:26;;;;;;;5.05;4.65;;;;;;;;;;6157883;23;20005;-78
2022/06/24 13:53:52;;;;;;;5.05;4.55;;;;;;;;;;6131668;23;20016;-78
2022/06/24 13:56:19;;;;;;;4.68;3.90;;;;;;;;;;6158092;23;20036;-79
2022/06/24 13:58:45;;;;;;;5.43;4.43;;;;;;;;;;6131388;23;20012;-80
2022/06/24 14:01:12;;;;;;;5.22;4.82;;;;;;;;;;6157677;23;20001;-77
2022/06/24 14:03:38;;;;;;;5.25;4.82;;;;;;;;;;6155576;23;20010;-77
2022/06/24 14:06:05;;;;;;;5.25;4.75;;;;;;;;;;6156775;23;20001;-77
2022/06/24 14:08:31;;;;;;;5.38;4.65;;;;;;;;;;6156868;23;20093;-78
2022/06/24 14:10:57;;;;;;;4.50;4.20;;;;;;;;;;6156563;23;20064;-78
2022/06/24 14:13:24;;;;;;;5.05;4.47;;;;;;;;;;6156553;23;20072;-80
2022/06/24 14:15:50;;;;;;;5.20;4.80;;;;;;;;;;6156873;23;20012;-78
2022/06/24 14:18:16;;;;;;;5.82;4.82;;;;;;;;;;6156561;23;20128;-77
2022/06/24 14:20:42;;;;;;;4.72;4.00;;;;;;;;;;6156384;23;20005;-80
2022/06/24 14:26:04;;;;;;;4.28;3.85;;;;;;;;;;6158393;23;20017;-80
2022/06/24 14:28:30;;;;;;;5.28;4.70;;;;;;;;;;6132418;23;20002;-78
2022/06/24 14:30:57;;;;;;;5.65;4.30;;;;;;;;;;6157369;23;20371;-78
2022/06/24 14:33:23;;;;;;;5.25;4.75;;;;;;;;;;6156663;23;20008;-78
2022/06/24 14:35:49;;;;;;;5.28;4.60;;;;;;;;;;6156382;23;20008;-78
2022/06/24 14:41:00;;;;;;;4.55;4.15;;;;;;;;;;6157426;23;20048;-77
2022/06/24 14:43:26;;;;;;;8.90;7.95;;;;;;;;;;6157247;23;20421;-77
2022/06/24 14:45:52;;;;;;;4.65;4.25;;;;;;;;;;6157122;23;19997;-78
2022/06/24 14:48:18;;;;;;;7.40;6.80;;;;;;;;;;6157842;23;20021;-79
2022/06/24 14:50:45;;;;;;;5.55;5.05;;;;;;;;;;6157180;23;20009;-79
2022/06/24 14:53:19;;;;;;;4.15;3.72;;;;;;;;;;6133994;23;20056;-79
2022/06/24 14:55:45;;;;;;;5.97;5.38;;;;;;;;;;6132444;23;20009;-80
2022/06/24 14:58:12;;;;;;;4.65;4.25;;;;;;;;;;6156460;23;20006;-78
2022/06/24 15:00:38;;;;;;;5.45;4.95;;;;;;;;;;6156168;23;20005;-79
2022/06/24 15:03:04;;;;;;;6.80;4.82;;;;;;;;;;6155721;23;20002;-78
2022/06/24 15:05:30;;;;;;;5.72;5.22;;;;;;;;;;6155710;23;20025;-82
2022/06/24 15:07:57;;;;;;;11.52;10.52;;;;;;;;;;6155590;23;20089;-78
2022/06/24 15:10:23;;;;;;;5.03;4.60;;;;;;;;;;6155221;23;20009;-79